Time;durP1;ratioP1;P1;durP2;ratioP2;P2;SDS_P1;SDS_P2;PMS_P1;PMS_P2;Temp;Humidity;BMP_temperature;BMP_pressure;BME280_temperature;BME280_humidity;BME280_pressure;Samples;Min_cycle;Max_cycle;Signal;HPM_P1;HPM_P2
2022/09/13 00:01:57;;;;;;;;;;;12.90;99.90;;;11.72;100.00;95424.25;10486421;28;2756;-71
2022/09/13 00:06:59;;;;;;;;;;;12.80;99.90;;;11.84;100.00;95424.66;10483789;28;2908;-69
2022/09/13 00:12:02;;;;;;;;;;;12.80;99.90;;;11.89;100.00;95413.00;10489801;28;2709;-68
2022/09/13 00:17:05;;;;;;;;;;;12.80;99.90;;;11.82;100.00;95418.75;10483597;28;2649;-68
2022/09/13 00:22:08;;;;;;;;;;;12.80;99.90;;;11.73;100.00;95401.59;10486509;28;3298;-72
2022/09/13 00:27:11;;;;;;;;;;;12.80;99.90;;;11.77;100.00;95399.13;10486686;28;3150;-74
2022/09/13 00:32:15;;;;;;;;;;;12.80;99.90;;;11.93;100.00;95391.69;10492858;28;2638;-75
2022/09/13 00:37:17;;;;;;;;;;;12.90;99.90;;;11.84;100.00;95378.06;10487529;28;2681;-68
2022/09/13 00:42:20;;;;;;;;;;;12.80;99.90;;;11.72;100.00;95386.53;10499591;28;3073;-68
2022/09/13 00:47:23;;;;;;;;;;;12.90;99.90;;;11.80;100.00;95380.50;10484826;28;3106;-69
2022/09/13 00:52:25;;;;;;;;;;;12.80;99.90;;;11.73;100.00;95398.13;10490718;28;2812;-67
2022/09/13 00:57:29;;;;;;;;;;;12.80;99.90;;;11.67;100.00;95400.06;10482455;28;2777;-67
2022/09/13 01:02:32;;;;;;;;;;;12.70;99.90;;;11.68;100.00;95390.91;10486099;28;2860;-68
2022/09/13 01:07:35;;;;;;;;;;;12.80;99.90;;;11.72;100.00;95375.78;10483995;28;2705;-68
2022/09/13 01:12:39;;;;;;;;;;;12.80;99.90;;;11.64;100.00;95354.88;10486884;28;2781;-67
2022/09/13 01:17:42;;;;;;;;;;;12.70;99.90;;;11.58;100.00;95364.13;10485222;28;2824;-66
2022/09/13 01:22:44;;;;;;;;;;;12.70;99.90;;;11.43;100.00;95356.22;10485061;28;3050;-70
2022/09/13 01:27:47;;;;;;;;;;;12.60;99.90;;;11.32;100.00;95356.38;10465053;28;2609;-69
2022/09/13 01:32:50;;;;;;;;;;;12.50;99.90;;;11.25;100.00;95347.03;10488159;28;2791;-70
2022/09/13 01:37:53;;;;;;;;;;;11.70;99.90;;;11.22;100.00;95350.31;10486688;28;3074;-68
2022/09/13 01:42:56;;;;;;;;;;;12.40;99.90;;;11.13;100.00;95343.94;10484376;28;2785;-69
2022/09/13 01:47:59;;;;;;;;;;;12.40;99.90;;;11.15;100.00;95342.59;10483424;28;3074;-69
2022/09/13 01:53:03;;;;;;;;;;;12.40;99.90;;;11.13;100.00;95339.38;10482688;28;2601;-69
2022/09/13 01:58:06;;;;;;;;;;;12.40;99.90;;;11.04;100.00;95339.22;10482685;28;2698;-69
2022/09/13 02:03:09;;;;;;;;;;;12.20;99.90;;;11.04;100.00;95338.41;10455707;28;2585;-70
2022/09/13 02:08:12;;;;;;;;;;;12.20;99.90;;;10.94;100.00;95342.03;10480890;28;3029;-70
2022/09/13 02:13:15;;;;;;;;;;;10.40;99.90;;;10.80;100.00;95349.94;10480381;28;2744;-69
2022/09/13 02:18:18;;;;;;;;;;;12.00;99.90;;;10.71;100.00;95351.66;10484390;28;2694;-72
2022/09/13 02:23:21;;;;;;;;;;;11.80;99.90;;;10.66;100.00;95349.03;10482185;28;3375;-70
2022/09/13 02:28:24;;;;;;;;;;;11.70;99.90;;;10.60;100.00;95347.47;10485739;28;2718;-73
2022/09/13 02:33:27;;;;;;;;;;;11.70;99.90;;;10.55;100.00;95356.38;10482810;28;2989;-75
2022/09/13 02:38:29;;;;;;;;;;;11.70;99.90;;;10.52;100.00;95356.97;10482883;28;2890;-69
2022/09/13 02:43:32;;;;;;;;;;;11.60;99.90;;;10.49;100.00;95359.41;10476161;28;2978;-68
2022/09/13 02:48:35;;;;;;;;;;;11.60;99.90;;;10.44;100.00;95354.09;10489545;28;2773;-71
2022/09/13 02:53:39;;;;;;;;;;;11.60;99.90;;;10.39;100.00;95370.25;10488731;28;2585;-69
2022/09/13 02:58:41;;;;;;;;;;;11.50;99.90;;;10.34;100.00;95372.97;10488099;28;2713;-68
2022/09/13 03:03:44;;;;;;;;;;;11.50;99.90;;;10.35;100.00;95369.19;10485091;28;2695;-68
2022/09/13 03:08:47;;;;;;;;;;;11.40;99.90;;;10.57;100.00;95360.69;10483474;28;2616;-68
2022/09/13 03:13:50;;;;;;;;;;;11.50;99.90;;;10.58;100.00;95373.03;10482520;28;3260;-70
2022/09/13 03:18:52;;;;;;;;;;;12.60;99.90;;;10.51;100.00;95373.38;10485499;28;2793;-69
2022/09/13 03:23:55;;;;;;;;;;;11.60;99.90;;;10.46;100.00;95386.84;10493475;28;2598;-73
2022/09/13 03:29:03;;;;;;;;;;;11.50;99.90;;;10.36;100.00;95368.13;10509831;28;2842;-72
2022/09/13 03:34:05;;;;;;;;;;;11.90;99.90;;;10.28;100.00;95351.53;10491234;28;2773;-68
2022/09/13 03:39:08;;;;;;;;;;;11.40;99.90;;;10.39;100.00;95340.69;10488709;28;3060;-69
2022/09/13 03:44:16;;;;;;;;;;;11.40;99.90;;;10.45;100.00;95334.19;10489775;28;2697;-69
2022/09/13 03:49:19;;;;;;;;;;;11.60;99.90;;;10.38;100.00;95356.03;10487519;28;2601;-68
2022/09/13 03:54:22;;;;;;;;;;;11.40;99.90;;;10.34;100.00;95356.84;10487614;28;3019;-72
2022/09/13 03:59:25;;;;;;;;;;;11.50;99.90;;;10.25;100.00;95365.53;10489957;28;3063;-76
2022/09/13 04:04:28;;;;;;;;;;;11.40;99.90;;;10.24;100.00;95363.94;10486258;28;2787;-77
2022/09/13 04:09:30;;;;;;;;;;;11.60;99.90;;;10.19;100.00;95357.75;10492542;28;3015;-68
2022/09/13 04:14:33;;;;;;;;;;;11.20;99.90;;;10.23;100.00;95359.63;10487449;28;3033;-70
2022/09/13 04:19:36;;;;;;;;;;;11.30;99.90;;;10.22;100.00;95355.31;10492731;28;2598;-69
2022/09/13 04:24:39;;;;;;;;;;;11.30;99.90;;;10.25;100.00;95349.41;10492907;28;2793;-69
2022/09/13 04:29:41;;;;;;;;;;;11.40;99.90;;;10.23;100.00;95356.94;10490445;28;2762;-69
2022/09/13 04:34:46;;;;;;;;;;;11.20;99.90;;;10.29;100.00;95355.81;10484170;28;2947;-68
2022/09/13 04:39:49;;;;;;;;;;;11.30;99.90;;;10.32;100.00;95364.41;10492962;28;2570;-70
2022/09/13 04:44:52;;;;;;;;;;;11.30;99.90;;;10.36;100.00;95360.84;10487646;28;2901;-68
2022/09/13 04:49:54;;;;;;;;;;;11.40;99.90;;;10.37;100.00;95370.53;10485598;28;2590;-69
2022/09/13 04:55:00;;;;;;;;;;;11.40;99.90;;;10.39;100.00;95359.50;10478905;28;2825;-71
2022/09/13 05:00:03;;;;;;;;;;;11.40;99.90;;;10.50;100.00;95369.09;10484130;28;2594;-70
2022/09/13 05:05:07;;;;;;;;;;;11.60;99.90;;;10.58;100.00;95363.09;10486179;28;2725;-72
2022/09/13 05:10:10;;;;;;;;;;;11.50;99.90;;;10.82;100.00;95363.13;10484467;28;3098;-70
2022/09/13 05:15:17;;;;;;;;;;;11.70;99.90;;;11.12;100.00;95356.59;10480131;28;2653;-70
2022/09/13 05:20:21;;;;;;;;;;;11.80;99.90;;;11.41;100.00;95358.41;10479663;28;2558;-69
2022/09/13 05:25:24;;;;;;;;;;;12.10;99.90;;;11.76;100.00;95360.63;10485603;28;3060;-69
2022/09/13 05:30:28;;;;;;;;;;;12.40;99.90;;;12.01;100.00;95372.16;10486394;28;2563;-68
2022/09/13 05:35:31;;;;;;;;;;;12.70;99.90;;;12.23;100.00;95363.50;10484290;28;3059;-70
2022/09/13 05:40:42;;;;;;;;;;;12.90;99.90;;;12.43;100.00;95363.16;10481461;28;2752;-69
2022/09/13 05:45:46;;;;;;;;;;;13.00;99.90;;;12.67;100.00;95354.94;10482746;28;2865;-69
2022/09/13 05:50:48;;;;;;;;;;;13.20;99.90;;;12.86;100.00;95352.97;10480061;28;3030;-70
2022/09/13 05:56:00;;;;;;;;;;;13.40;99.90;;;12.89;100.00;95359.66;10480937;28;2630;-76
2022/09/13 06:01:03;;;;;;;;;;;13.50;99.90;;;13.11;100.00;95362.47;10482439;28;2623;-72
2022/09/13 06:06:06;;;;;;;;;;;13.70;99.90;;;13.37;100.00;95357.41;10479579;28;2745;-70
2022/09/13 06:11:13;;;;;;;;;;;13.80;99.90;;;13.82;100.00;95354.84;10478161;28;3114;-69
2022/09/13 06:16:16;;;;;;;;;;;14.20;99.90;;;14.28;100.00;95351.09;10481232;28;2581;-69
2022/09/13 06:21:23;;;;;;;;;;;14.50;99.90;;;14.62;100.00;95355.16;10483876;28;2857;-73
2022/09/13 06:26:35;;;;;;;;;;;14.90;99.90;;;15.00;100.00;95345.47;10458705;28;2536;-69
2022/09/13 06:31:42;;;;;;;;;;;15.20;99.90;;;15.32;100.00;95340.81;10476719;28;2747;-68
2022/09/13 06:36:45;;;;;;;;;;;15.50;99.90;;;15.68;100.00;95338.72;10480017;28;2765;-68
2022/09/13 06:41:48;;;;;;;;;;;15.80;99.90;;;15.77;100.00;95335.22;10476812;28;3046;-68
2022/09/13 06:46:52;;;;;;;;;;;16.00;99.90;;;15.97;100.00;95342.75;10476501;28;2801;-71
2022/09/13 06:51:55;;;;;;;;;;;16.20;99.90;;;16.24;100.00;95338.94;10474523;28;3042;-70
2022/09/13 06:56:57;;;;;;;;;;;16.50;99.90;;;16.48;99.35;95346.56;10479075;28;2991;-70
2022/09/13 07:02:00;;;;;;;;;;;16.70;99.90;;;16.81;95.97;95333.28;10482289;28;2586;-70
2022/09/13 07:07:03;;;;;;;;;;;17.10;99.90;;;17.26;94.46;95330.88;10481221;28;3070;-69
2022/09/13 07:12:07;;;;;;;;;;;17.40;99.90;;;17.69;88.53;95321.72;10463930;28;2751;-68
2022/09/13 07:17:11;;;;;;;;;;;17.80;99.90;;;18.16;87.02;95339.78;10486234;28;2801;-68
2022/09/13 07:22:15;;;;;;;;;;;18.20;99.90;;;18.51;80.72;95340.28;10477210;28;2642;-72
2022/09/13 07:27:19;;;;;;;;;;;18.50;99.90;;;19.04;76.02;95344.91;10484549;28;2634;-72
2022/09/13 07:32:22;;;;;;;;;;;18.90;99.90;;;19.53;73.63;95341.41;10578580;22;2187;-73
2022/09/13 07:37:24;;;;;;;;;;;19.40;99.90;;;19.84;69.83;95328.00;10447820;28;1842;-73
2022/09/13 07:42:27;;;;;;;;;;;19.80;99.90;;;20.11;67.54;95329.22;10444993;28;1899;-72
2022/09/13 07:47:30;;;;;;;;;;;20.00;99.90;;;20.39;65.13;95340.16;10443073;28;1759;-69
2022/09/13 07:52:36;;;;;;;;;;;20.30;99.90;;;20.73;62.69;95332.53;10443709;28;1934;-69
2022/09/13 07:57:39;;;;;;;;;;;20.60;99.90;;;20.99;62.40;95341.06;10437120;28;1991;-69
2022/09/13 08:02:43;;;;;;;;;;;21.00;99.90;;;21.34;58.07;95334.16;10441293;28;1955;-69
2022/09/13 08:07:45;;;;;;;;;;;21.20;99.90;;;21.75;57.98;95328.09;10442833;28;1835;-70
2022/09/13 08:12:49;;;;;;;;;;;21.60;99.90;;;21.89;54.35;95332.34;10442830;28;1946;-70
2022/09/13 08:17:58;;;;;;;;;;;21.90;99.90;;;22.55;52.81;95332.22;10444399;28;1771;-70
2022/09/13 08:23:01;;;;;;;;;;;22.20;99.90;;;22.34;51.92;95329.84;10443335;28;1832;-70
2022/09/13 08:28:04;;;;;;;;;;;22.90;99.90;;;22.38;52.50;95327.16;10439425;28;1899;-70
2022/09/13 08:33:06;;;;;;;;;;;22.50;99.90;;;21.91;54.45;95333.56;10442749;28;1966;-74
2022/09/13 08:38:09;;;;;;;;;;;22.50;99.90;;;21.68;55.65;95324.41;10436893;28;1916;-73
2022/09/13 08:43:13;;;;;;;;;;;22.50;99.90;;;21.89;56.17;95319.44;10441450;28;1908;-71
2022/09/13 08:48:17;;;;;;;;;;;22.20;99.90;;;21.74;58.56;95336.66;10439806;28;1919;-70
2022/09/13 08:53:20;;;;;;;;;;;22.20;99.90;;;21.69;57.50;95323.25;10440078;28;1979;-70
2022/09/13 08:58:22;;;;;;;;;;;22.30;99.90;;;21.56;62.55;95314.38;10437529;28;1933;-69
2022/09/13 09:03:25;;;;;;;;;;;22.20;99.90;;;21.94;58.51;95312.88;10445750;28;1769;-69
2022/09/13 09:08:30;;;;;;;;;;;22.40;99.90;;;22.33;58.22;95320.03;10439906;28;2140;-69
2022/09/13 09:13:32;;;;;;;;;;;22.60;99.90;;;21.63;58.92;95320.03;10440571;28;1971;-69
2022/09/13 09:18:36;;;;;;;;;;;22.60;99.90;;;21.83;57.85;95312.66;10441328;28;1905;-69
2022/09/13 09:23:39;;;;;;;;;;;22.50;99.90;;;22.21;57.49;95316.66;10440047;28;1976;-73
2022/09/13 09:28:42;;;;;;;;;;;22.60;99.90;;;22.53;56.17;95315.34;10441249;28;1903;-75
2022/09/13 09:33:45;;;;;;;;;;;22.90;99.90;;;22.47;54.79;95310.53;10441521;28;1918;-74
2022/09/13 09:39:01;;;;;;;;;;;23.10;99.90;;;22.45;55.63;95297.16;10432402;28;2230;-71
2022/09/13 09:44:08;;;;;;;;;;;23.10;99.90;;;22.32;57.95;95306.69;10436699;28;1937;-68
2022/09/13 09:50:07;;;;;;;;;;;23.00;99.90;;;22.52;55.71;95310.22;10438064;28;1981;-69
2022/09/13 09:54:37;;;;;;;;;;;23.20;99.90;;;22.66;57.10;95305.81;10440044;28;1804;-71
2022/09/13 09:59:40;;;;;;;;;;;23.20;99.90;;;22.87;56.59;95285.47;10414692;28;1824;-70
2022/09/13 10:04:43;;;;;;;;;;;23.40;99.90;;;22.77;56.15;95280.56;10432818;28;1867;-70
2022/09/13 10:09:46;;;;;;;;;;;23.50;99.90;;;22.85;56.37;95274.88;10431798;28;1947;-70
2022/09/13 10:14:51;;;;;;;;;;;23.50;99.90;;;23.03;54.49;95275.22;10436382;28;1994;-69
2022/09/13 10:19:56;;;;;;;;;;;23.60;99.90;;;22.86;53.41;95265.50;10417366;28;2082;-68
2022/09/13 10:24:59;;;;;;;;;;;23.60;99.90;;;23.03;53.06;95267.00;10438073;28;1933;-69
2022/09/13 10:30:02;;;;;;;;;;;23.60;99.90;;;22.98;54.51;95256.31;10438408;28;2140;-70
2022/09/13 10:35:07;;;;;;;;;;;23.70;99.90;;;23.32;53.85;95251.78;10421629;28;2286;-70
2022/09/13 10:40:10;;;;;;;;;;;23.90;99.90;;;23.60;51.90;95243.22;10439684;28;1886;-69
2022/09/13 10:45:16;;;;;;;;;;;24.00;99.90;;;23.65;53.10;95250.34;10434374;28;1843;-69
2022/09/13 10:50:19;;;;;;;;;;;24.10;99.90;;;23.57;51.80;95241.19;10435218;28;1937;-69
2022/09/13 10:55:22;;;;;;;;;;;24.30;99.90;;;23.97;51.46;95239.81;10432548;28;1888;-67
2022/09/13 11:00:29;;;;;;;;;;;24.50;99.90;;;24.53;48.34;95239.72;10433516;28;1998;-68
2022/09/13 11:05:36;;;;;;;;;;;24.80;99.90;;;25.30;43.93;95237.31;10439024;28;1985;-70
2022/09/13 11:10:39;;;;;;;;;;;25.30;99.90;;;26.40;42.25;95231.69;10414062;28;1898;-70
2022/09/13 11:15:42;;;;;;;;;;;26.20;99.90;;;26.65;39.47;95231.78;10434354;28;1959;-72
2022/09/13 11:20:45;;;;;;;;;;;26.90;99.90;;;26.69;39.01;95221.56;10439150;28;1865;-73
2022/09/13 11:25:47;;;;;;;;;;;27.00;99.90;;;26.52;38.24;95233.31;10438514;28;1894;-69
2022/09/13 11:30:50;;;;;;;;;;;27.20;99.90;;;26.67;37.61;95218.41;10437912;28;1910;-72
2022/09/13 11:35:53;;;;;;;;;;;27.10;99.90;;;26.72;37.84;95219.97;10433934;28;1826;-69
2022/09/13 11:40:56;;;;;;;;;;;27.20;99.90;;;26.80;38.96;95221.59;10444688;28;1891;-68
2022/09/13 11:45:58;;;;;;;;;;;27.30;99.90;;;27.06;36.96;95218.50;10442050;28;1971;-68
2022/09/13 11:51:02;;;;;;;;;;;27.40;99.90;;;27.08;39.25;95220.84;10450485;28;1906;-67
2022/09/13 11:56:04;;;;;;;;;;;27.40;99.90;;;27.35;37.75;95224.78;10446763;28;1749;-69
2022/09/13 12:01:07;;;;;;;;;;;27.50;99.90;;;27.72;36.48;95224.38;10446014;28;1913;-69
2022/09/13 12:06:10;;;;;;;;;;;27.80;99.90;;;27.53;35.90;95223.97;10449963;28;1903;-69
2022/09/13 12:11:13;;;;;;;;;;;27.90;99.90;;;27.81;35.54;95218.47;10448160;28;1954;-72
2022/09/13 12:16:17;;;;;;;;;;;28.00;99.90;;;27.41;36.62;95227.94;10446960;28;1912;-69
2022/09/13 12:21:22;;;;;;;;;;;27.80;99.90;;;27.47;37.87;95220.84;10443187;28;1880;-70
2022/09/13 12:26:25;;;;;;;;;;;27.80;99.90;;;27.21;38.16;95208.22;10442471;28;1789;-70
2022/09/13 12:31:27;;;;;;;;;;;27.80;99.90;;;26.32;36.50;95211.56;10441161;28;1976;-70
2022/09/13 12:36:30;;;;;;;;;;;27.40;99.90;;;26.34;40.08;95200.97;10437148;28;2070;-68
2022/09/13 12:41:33;;;;;;;;;;;27.20;99.90;;;25.72;39.53;95192.81;10442962;28;1887;-68
2022/09/13 12:46:36;;;;;;;;;;;26.90;99.90;;;25.38;40.82;95185.88;10443173;28;1938;-69
2022/09/13 12:51:39;;;;;;;;;;;26.50;99.90;;;25.31;41.32;95176.41;10448113;28;1929;-73
2022/09/13 12:56:43;;;;;;;;;;;26.30;99.90;;;25.57;40.14;95183.66;10442837;28;1882;-72
2022/09/13 13:01:46;;;;;;;;;;;26.30;99.90;;;25.29;40.72;95180.72;10442197;28;1904;-72
2022/09/13 13:06:50;;;;;;;;;;;26.20;99.90;;;25.27;39.93;95189.38;10442951;28;1927;-70
2022/09/13 13:11:53;;;;;;;;;;;26.10;99.90;;;25.45;40.26;95188.69;10440555;28;1962;-69
2022/09/13 13:16:56;;;;;;;;;;;26.10;99.90;;;25.54;40.71;95183.66;10444169;28;2060;-69
2022/09/13 13:21:58;;;;;;;;;;;26.20;99.90;;;25.64;40.95;95182.94;10446821;28;1923;-69
2022/09/13 13:27:01;;;;;;;;;;;26.20;99.90;;;25.45;41.07;95181.25;10443139;28;1955;-69
2022/09/13 13:32:06;;;;;;;;;;;26.30;99.90;;;25.76;40.48;95170.81;10442188;28;1984;-70
2022/09/13 13:37:09;;;;;;;;;;;26.30;99.90;;;25.83;39.98;95179.91;10437606;28;1855;-71
2022/09/13 13:42:12;;;;;;;;;;;26.30;99.90;;;25.70;40.03;95167.59;10424518;28;1887;-71
2022/09/13 13:47:15;;;;;;;;;;;26.30;99.90;;;25.57;39.98;95163.59;10438420;28;2107;-69
2022/09/13 13:52:21;;;;;;;;;;;26.30;99.90;;;25.60;38.69;95160.09;10434982;28;1969;-69
2022/09/13 13:57:24;;;;;;;;;;;26.30;99.90;;;25.78;39.42;95157.47;10435196;28;1887;-69
2022/09/13 14:02:27;;;;;;;;;;;26.30;99.90;;;25.96;37.96;95149.25;10435594;28;2089;-68
2022/09/13 14:07:30;;;;;;;;;;;26.40;99.90;;;26.21;36.93;95147.41;10417307;28;1922;-69
2022/09/13 14:12:33;;;;;;;;;;;26.60;99.90;;;26.55;36.06;95144.34;10434986;28;1962;-68
2022/09/13 14:17:36;;;;;;;;;;;26.80;99.90;;;26.79;34.11;95138.09;10431067;28;1902;-69
2022/09/13 14:22:38;;;;;;;;;;;27.10;99.90;;;26.88;35.53;95149.50;10431055;28;1848;-69
2022/09/13 14:27:42;;;;;;;;;;;27.20;99.90;;;26.74;35.64;95145.94;10439797;28;1929;-70
2022/09/13 14:32:46;;;;;;;;;;;27.20;99.90;;;27.05;35.39;95144.38;10437224;28;2014;-69
2022/09/13 14:37:48;;;;;;;;;;;27.30;99.90;;;27.00;35.84;95136.50;10436870;28;1987;-70
2022/09/13 14:42:51;;;;;;;;;;;27.50;99.90;;;26.91;36.71;95139.63;10416268;28;1885;-70
2022/09/13 14:47:54;;;;;;;;;;;27.50;99.90;;;26.97;36.81;95127.03;10440033;28;2071;-70
2022/09/13 14:52:57;;;;;;;;;;;27.50;99.90;;;26.79;37.29;95123.50;10439024;28;2117;-72
2022/09/13 14:58:02;;;;;;;;;;;27.50;99.90;;;27.19;35.94;95111.28;10437685;28;1954;-70
2022/09/13 15:03:05;;;;;;;;;;;27.50;99.90;;;27.00;35.21;95108.91;10436706;28;1913;-72
2022/09/13 15:08:08;;;;;;;;;;;27.50;99.90;;;26.51;35.59;95102.22;10435813;28;1772;-69
2022/09/13 15:13:11;;;;;;;;;;;27.40;99.90;;;26.08;35.76;95089.13;10433432;28;1950;-68
2022/09/13 15:18:16;;;;;;;;;;;26.90;99.90;;;25.91;36.07;95083.59;10447675;28;1898;-69
2022/09/13 15:23:20;;;;;;;;;;;26.60;99.90;;;25.90;35.64;95087.50;10443506;28;1932;-69
2022/09/13 15:28:23;;;;;;;;;;;26.50;99.90;;;26.02;34.94;95082.44;10441095;28;1933;-69
2022/09/13 15:33:26;;;;;;;;;;;26.50;99.50;;;26.04;35.35;95082.81;10444893;28;2203;-69
2022/09/13 15:38:30;;;;;;;;;;;26.60;99.40;;;26.20;36.52;95071.44;10466947;28;1959;-69
2022/09/13 15:43:33;;;;;;;;;;;26.70;99.90;;;25.71;39.03;95059.09;10446884;28;1788;-68
2022/09/13 15:48:35;;;;;;;;;;;26.50;99.90;;;25.29;39.89;95055.00;10447014;28;2042;-74
2022/09/13 15:53:38;;;;;;;;;;;26.30;99.90;;;25.03;40.54;95057.97;10450624;28;1910;-70
2022/09/13 15:58:41;;;;;;;;;;;26.00;99.90;;;24.61;43.36;95047.44;10437201;28;1963;-68
2022/09/13 16:03:44;;;;;;;;;;;25.70;99.90;;;24.53;43.77;95043.88;10448141;28;1829;-70
2022/09/13 16:08:47;;;;;;;;;;;25.40;99.90;;;24.37;44.54;95049.63;10448998;28;2098;-70
2022/09/13 16:13:51;;;;;;;;;;;25.30;99.90;;;24.18;45.45;95047.88;10440459;28;2038;-68
2022/09/13 16:18:54;;;;;;;;;;;25.10;99.90;;;24.15;46.60;95043.13;10441166;28;1843;-76
2022/09/13 16:23:57;;;;;;;;;;;25.00;99.90;;;24.09;47.98;95039.16;10456441;28;1900;-75
2022/09/13 16:28:59;;;;;;;;;;;25.00;99.90;;;23.91;49.19;95040.91;10450634;28;1855;-71
2022/09/13 16:34:02;;;;;;;;;;;24.80;99.90;;;23.64;51.39;95037.50;10443147;28;2034;-71
2022/09/13 16:39:06;;;;;;;;;;;24.60;99.90;;;23.42;53.49;95045.47;10447327;28;1879;-68
2022/09/13 16:44:09;;;;;;;;;;;24.40;99.90;;;23.18;55.57;95057.69;10447307;28;1807;-68
2022/09/13 16:49:12;;;;;;;;;;;24.20;99.90;;;22.93;57.45;95057.34;10444784;28;2077;-70
2022/09/13 16:54:14;;;;;;;;;;;23.90;99.90;;;22.78;59.53;95046.53;10445260;28;1934;-69
2022/09/13 16:59:17;;;;;;;;;;;23.80;99.90;;;22.60;61.44;95049.78;10439865;28;1821;-69
2022/09/13 17:04:21;;;;;;;;;;;23.60;99.90;;;22.44;63.05;95046.38;10427634;28;1917;-70
2022/09/13 17:09:26;;;;;;;;;;;23.40;99.90;;;22.25;64.41;95049.22;10447077;28;1971;-68
2022/09/13 17:14:29;;;;;;;;;;;23.30;99.90;;;22.25;65.19;95057.41;10442521;28;1919;-71
2022/09/13 17:19:32;;;;;;;;;;;23.20;99.90;;;22.03;66.67;95059.75;10435526;28;1919;-71
2022/09/13 17:24:36;;;;;;;;;;;23.10;99.90;;;22.09;65.63;95041.91;10439336;28;1930;-70
2022/09/13 17:29:38;;;;;;;;;;;23.00;99.90;;;22.02;66.46;95040.97;10440478;28;1736;-68
2022/09/13 17:34:41;;;;;;;;;;;22.90;99.90;;;21.95;68.18;95040.81;10437284;28;1981;-69
2022/09/13 17:39:44;;;;;;;;;;;22.90;99.90;;;21.68;69.87;95032.53;10447462;28;1851;-68
2022/09/13 17:44:47;;;;;;;;;;;22.70;99.90;;;21.50;72.09;95034.13;10446252;28;1867;-69
2022/09/13 17:49:51;;;;;;;;;;;22.60;99.90;;;21.36;73.89;95034.66;10443204;28;1915;-69
2022/09/13 17:54:55;;;;;;;;;;;22.40;99.90;;;21.18;76.22;95036.19;10430458;28;1895;-70
2022/09/13 17:59:58;;;;;;;;;;;22.30;99.90;;;21.08;77.07;95023.13;10444256;28;2102;-69
2022/09/13 18:05:01;;;;;;;;;;;22.00;99.90;;;20.94;79.29;95027.13;10442345;28;1942;-70
2022/09/13 18:10:08;;;;;;;;;;;22.00;99.90;;;20.85;79.93;95023.81;10436352;28;2022;-69
2022/09/13 18:15:31;;;;;;;;;;;21.80;99.90;;;20.75;81.76;95024.38;10435600;28;1974;-72
2022/09/13 18:20:34;;;;;;;;;;;21.80;99.90;;;20.67;82.76;95028.88;10440123;28;1891;-69
2022/09/13 18:25:47;;;;;;;;;;;21.70;99.90;;;20.51;84.34;95022.66;10436215;28;1910;-71
2022/09/13 18:30:49;;;;;;;;;;;21.50;99.90;;;20.43;86.08;95016.22;10437153;28;1843;-70
2022/09/13 18:35:52;;;;;;;;;;;21.40;99.90;;;20.27;86.95;95023.63;10424641;28;1985;-71
2022/09/13 18:40:55;;;;;;;;;;;21.30;99.90;;;20.16;87.96;95026.09;10440929;28;1873;-72
2022/09/13 18:45:58;;;;;;;;;;;21.20;99.90;;;20.17;87.32;95032.38;10438187;28;1904;-71
2022/09/13 18:51:01;;;;;;;;;;;21.20;99.90;;;20.15;88.09;95031.91;10437221;28;1901;-70
2022/09/13 18:56:03;;;;;;;;;;;21.10;99.90;;;20.13;88.11;95028.75;10442223;28;1989;-69
2022/09/13 19:01:06;;;;;;;;;;;21.10;99.90;;;19.97;90.04;95028.72;10438894;28;2133;-68
2022/09/13 19:06:09;;;;;;;;;;;21.00;99.90;;;19.82;90.08;95037.69;10437373;28;1986;-69
2022/09/13 19:11:21;;;;;;;;;;;20.90;99.90;;;19.72;91.06;95033.53;10442214;28;1860;-68
2022/09/13 19:16:45;;;;;;;;;;;20.80;99.90;;;19.84;90.05;95017.09;10425000;28;1907;-67
2022/09/13 19:21:47;;;;;;;;;;;20.80;99.90;;;19.76;90.36;95012.63;10446857;28;1903;-70
2022/09/13 19:26:54;;;;;;;;;;;20.70;99.90;;;19.74;90.30;95022.31;10423041;28;1891;-69
2022/09/13 19:31:57;;;;;;;;;;;20.70;99.90;;;19.60;91.88;95030.91;10439209;28;1976;-71
2022/09/13 19:37:02;;;;;;;;;;;20.60;99.90;;;19.63;93.21;95024.75;10441408;28;2115;-69
2022/09/13 19:42:05;;;;;;;;;;;20.60;99.90;;;19.55;93.06;95018.28;10439809;28;1971;-69
2022/09/13 19:52:34;;;;;;;;;;;20.50;99.90;;;19.42;94.18;94998.47;10440158;28;2323;-76
2022/09/13 19:57:37;;;;;;;;;;;20.50;99.90;;;19.33;95.22;94992.38;10440646;28;1910;-75
2022/09/13 20:02:44;;;;;;;;;;;20.40;99.90;;;19.18;96.38;94993.13;10446050;28;1856;-68
2022/09/13 20:07:50;;;;;;;;;;;20.30;99.90;;;19.07;96.95;94986.59;10453737;28;1829;-68
2022/09/13 20:12:54;;;;;;;;;;;20.20;99.90;;;18.92;98.89;94985.41;10448017;28;1964;-68
2022/09/13 20:17:56;;;;;;;;;;;20.10;99.90;;;18.89;99.46;94973.28;10432736;28;1902;-69
2022/09/13 20:22:59;;;;;;;;;;;20.00;99.90;;;18.70;100.00;94972.28;10454188;28;1941;-68
2022/09/13 20:28:02;;;;;;;;;;;19.90;99.90;;;18.57;100.00;94976.94;10445555;28;1837;-69
2022/09/13 20:33:05;;;;;;;;;;;19.80;99.90;;;18.47;100.00;94967.34;10456076;28;1969;-68
2022/09/13 20:38:08;;;;;;;;;;;19.60;99.90;;;18.53;100.00;94965.19;10446908;28;1948;-68
2022/09/13 20:43:11;;;;;;;;;;;19.60;99.90;;;18.43;100.00;94962.91;10442889;28;1922;-68
2022/09/13 20:48:14;;;;;;;;;;;19.50;99.90;;;18.32;100.00;94962.59;10444671;28;1908;-69
2022/09/13 20:53:18;;;;;;;;;;;;;;;18.18;100.00;94967.59;10445924;28;1905;-69
2022/09/13 20:58:21;;;;;;;;;;;;;;;18.17;100.00;94958.66;10442317;28;1908;-77
2022/09/13 21:03:25;;;;;;;;;;;;;;;18.21;100.00;94973.16;10444832;28;1891;-78
2022/09/13 21:08:41;;;;;;;;;;;;;;;18.28;100.00;94978.81;10446120;28;1790;-77
2022/09/13 21:13:44;;;;;;;;;;;;;;;18.27;100.00;94985.41;10442315;28;1987;-79
2022/09/13 21:18:48;;;;;;;;;;;;;;;18.31;100.00;94980.84;10444474;28;1897;-77
2022/09/13 21:23:51;;;;;;;;;;;;;;;18.24;100.00;94991.50;10445601;28;1941;-76
2022/09/13 21:28:54;;;;;;;;;;;;;;;18.20;100.00;94977.00;10443272;28;1932;-77
2022/09/13 21:33:58;;;;;;;;;;;;;;;18.19;100.00;94991.72;10445859;28;1960;-77
2022/09/13 21:39:02;;;;;;;;;;;;;;;18.14;100.00;94989.25;10445264;28;1956;-78
2022/09/13 21:44:05;;;;;;;;;;;;;;;18.20;100.00;94987.91;10443118;28;1956;-77
2022/09/13 21:49:09;;;;;;;;;;;;;;;18.45;100.00;94982.41;10441430;28;1946;-77
2022/09/13 21:54:13;;;;;;;;;;;;;;;18.36;100.00;95002.38;10442923;28;1927;-77
2022/09/13 21:59:16;;;;;;;;;;;;;;;18.32;100.00;94990.59;10427350;28;1964;-77
2022/09/13 22:04:21;;;;;;;;;;;;;;;18.21;100.00;95010.44;10447541;28;1954;-77
2022/09/13 22:09:25;;;;;;;;;;;;;;;18.28;100.00;95022.34;10444815;28;1847;-76
2022/09/13 22:14:29;;;;;;;;;;;;;;;18.14;100.00;95019.19;10444673;28;1922;-76
2022/09/13 22:19:32;;;;;;;;;;;;;;;18.08;100.00;95017.81;10426367;28;2256;-77
2022/09/13 22:24:35;;;;;;;;;;;;;;;18.12;100.00;95001.59;10443682;28;1851;-76
2022/09/13 22:29:39;;;;;;;;;;;;;;;18.19;100.00;94980.84;10440447;28;1922;-77
2022/09/13 22:34:42;;;;;;;;;;;;;;;18.20;100.00;94960.69;10441493;28;1962;-77
2022/09/13 22:39:46;;;;;;;;;;;;;;;18.20;100.00;94966.13;10439397;28;1899;-77
2022/09/13 22:44:49;;;;;;;;;;;;;;;18.12;100.00;94967.03;10444451;28;1908;-77
2022/09/13 22:49:53;;;;;;;;;;;;;;;18.09;100.00;94965.00;10425831;28;1956;-77
2022/09/13 22:55:01;;;;;;;;;;;;;;;18.06;100.00;94969.19;10440244;28;1910;-77
2022/09/13 23:00:04;;;;;;;;;;;;;;;18.06;100.00;94971.91;10442009;28;1975;-77
2022/09/13 23:05:07;;;;;;;;;;;;;;;18.09;100.00;94970.44;10438197;28;1997;-77
2022/09/13 23:10:11;;;;;;;;;;;;;;;18.09;100.00;94965.00;10447212;28;1946;-76
2022/09/13 23:15:14;;;;;;;;;;;;;;;18.08;100.00;94977.03;10445623;28;1981;-76
2022/09/13 23:20:18;;;;;;;;;;;;;;;18.05;100.00;94969.53;10444859;28;1935;-76
2022/09/13 23:25:22;;;;;;;;;;;;;;;18.01;100.00;94963.19;10446265;28;2117;-76
2022/09/13 23:30:25;;;;;;;;;;;;;;;17.87;100.00;94973.59;10440755;28;2174;-77
2022/09/13 23:35:28;;;;;;;;;;;;;;;17.91;100.00;94964.44;10446582;28;1977;-78